Time;durP1;ratioP1;P1;durP2;ratioP2;P2;SDS_P1;SDS_P2;PMS_P1;PMS_P2;Temp;Humidity;BMP_temperature;BMP_pressure;BME280_temperature;BME280_humidity;BME280_pressure;Samples;Min_cycle;Max_cycle;Signal;HPM_P1;HPM_P2
2022/01/05 00:02:03;;;;;;;3.23;1.83;;;;;;;2.29;100.00;94711.53;5021494;28;20060;-88
2022/01/05 00:04:36;;;;;;;3.50;1.93;;;;;;;2.25;100.00;94708.41;5022376;28;20052;-87
2022/01/05 00:07:10;;;;;;;3.50;1.83;;;;;;;2.28;100.00;94708.13;5027918;28;20033;-87
2022/01/05 00:09:36;;;;;;;3.47;1.87;;;;;;;2.32;100.00;94698.25;5037274;28;20052;-86
2022/01/05 00:12:02;;;;;;;3.60;1.90;;;;;;;2.37;100.00;94693.44;5052050;28;20276;-87
2022/01/05 00:14:29;;;;;;;4.50;2.00;;;;;;;2.34;100.00;94699.72;5045786;28;20059;-87
2022/01/05 00:17:17;;;;;;;2.13;1.20;;;;;;;2.39;100.00;94699.31;5049291;28;20029;-86
2022/01/05 00:19:44;;;;;;;3.50;1.70;;;;;;;2.43;100.00;94695.44;5020397;28;20057;-86
2022/01/05 00:22:10;;;;;;;2.70;1.50;;;;;;;2.39;100.00;94690.72;5042478;28;20091;-87
2022/01/05 00:24:43;;;;;;;3.00;1.60;;;;;;;2.44;100.00;94697.06;5056442;28;20558;-87
2022/01/05 00:27:09;;;;;;;2.58;1.13;;;;;;;2.40;100.00;94695.75;5046910;28;20041;-87
2022/01/05 00:29:35;;;;;;;3.37;1.50;;;;;;;2.43;100.00;94703.22;5041281;28;20037;-87
2022/01/05 00:32:01;;;;;;;3.47;1.70;;;;;;;2.50;100.00;94699.09;5030850;28;20120;-87
2022/01/05 00:34:30;;;;;;;2.77;1.60;;;;;;;2.46;100.00;94692.56;5051154;28;20085;-88
2022/01/05 00:37:00;;;;;;;3.03;1.40;;;;;;;2.47;100.00;94689.00;5019374;28;20046;-88
2022/01/05 00:39:37;;;;;;;2.57;1.10;;;;;;;2.46;100.00;94692.56;5050328;28;20368;-87
2022/01/05 00:42:05;;;;;;;2.13;1.03;;;;;;;2.48;100.00;94685.47;5030038;28;20033;-88
2022/01/05 00:44:31;;;;;;;0.90;0.63;;;;;;;2.51;100.00;94679.94;5042871;28;20451;-88
2022/01/05 00:46:57;;;;;;;1.20;0.60;;;;;;;2.52;100.00;94673.81;5043444;28;20039;-89
2022/01/05 00:49:25;;;;;;;0.73;0.50;;;;;;;2.60;100.00;94671.28;5040856;28;20064;-88
2022/01/05 00:51:56;;;;;;;1.27;0.60;;;;;;;2.59;100.00;94674.03;5055443;28;20029;-89
2022/01/05 00:54:48;;;;;;;0.90;0.37;;;;;;;2.59;100.00;94669.66;5046675;28;20033;-89
2022/01/05 00:57:41;;;;;;;0.80;0.40;;;;;;;2.65;100.00;94673.44;5041636;28;20033;-90
2022/01/05 01:00:08;;;;;;;1.90;0.30;;;;;;;2.70;100.00;94667.78;5043228;28;20132;-88
2022/01/05 01:02:34;;;;;;;0.57;0.37;;;;;;;2.72;100.00;94658.91;5025537;28;20048;-88
2022/01/05 01:05:13;;;;;;;0.60;0.20;;;;;;;2.72;100.00;94645.94;5049681;28;20052;-88
2022/01/05 01:07:39;;;;;;;2.80;0.40;;;;;;;2.73;100.00;94651.94;5025592;28;20069;-89
2022/01/05 01:10:06;;;;;;;1.03;0.43;;;;;;;2.76;100.00;94644.66;5029520;28;20087;-88
2022/01/05 01:12:34;;;;;;;1.40;0.70;;;;;;;2.72;100.00;94647.72;5031726;28;20025;-88
2022/01/05 01:15:04;;;;;;;1.27;0.80;;;;;;;2.54;100.00;94637.31;5056151;28;20017;-89
2022/01/05 01:17:36;;;;;;;2.53;0.90;;;;;;;2.47;100.00;94650.06;5026132;28;20503;-89
2022/01/05 01:20:20;;;;;;;1.80;0.85;;;;;;;2.38;100.00;94650.97;5049863;28;20032;-89
2022/01/05 01:22:48;;;;;;;2.22;1.00;;;;;;;2.34;100.00;94641.84;5030583;28;20061;-89
2022/01/05 01:25:28;;;;;;;2.70;1.30;;;;;;;2.31;100.00;94639.53;5053165;28;20052;-89
2022/01/05 01:27:58;;;;;;;2.73;1.33;;;;;;;2.33;100.00;94632.44;5053025;28;20040;-89
2022/01/05 01:30:27;;;;;;;3.23;1.50;;;;;;;2.40;100.00;94635.25;5033382;28;20095;-89
2022/01/05 01:32:53;;;;;;;3.13;1.30;;;;;;;2.46;100.00;94629.47;5052249;28;20041;-89
2022/01/05 01:35:19;;;;;;;2.13;1.03;;;;;;;2.46;100.00;94627.69;5048422;28;20036;-89
2022/01/05 01:37:45;;;;;;;3.27;1.40;;;;;;;2.48;100.00;94630.13;5052417;28;20104;-90
2022/01/05 01:40:23;;;;;;;2.77;1.50;;;;;;;2.46;100.00;94627.69;5042883;28;20106;-89
2022/01/05 01:42:53;;;;;;;3.87;1.17;;;;;;;2.50;100.00;94634.22;5022270;28;20041;-90
2022/01/05 01:45:31;;;;;;;2.87;1.20;;;;;;;2.57;100.00;94645.63;5041346;28;20038;-90
2022/01/05 01:48:09;;;;;;;2.33;0.93;;;;;;;2.62;100.00;94652.16;5030119;28;20052;-90
2022/01/05 01:50:37;;;;;;;3.33;1.63;;;;;;;2.56;100.00;94653.56;5033045;28;20037;-90
2022/01/05 01:53:04;;;;;;;3.00;1.60;;;;;;;2.47;100.00;94657.84;5026547;28;20021;-90
2022/01/05 01:55:30;;;;;;;5.70;1.63;;;;;;;2.46;100.00;94658.84;5012193;28;20064;-90
2022/01/05 01:57:56;;;;;;;4.37;1.90;;;;;;;2.48;100.00;94667.28;5025774;28;20033;-90
2022/01/05 02:00:23;;;;;;;2.33;1.33;;;;;;;2.41;100.00;94668.00;5035459;28;20025;-89
2022/01/05 02:02:55;;;;;;;6.70;1.63;;;;;;;2.41;100.00;94658.44;5030461;28;20041;-89
2022/01/05 02:05:22;;;;;;;3.87;1.80;;;;;;;2.42;100.00;94675.66;5043119;28;20297;-89
2022/01/05 02:07:53;;;;;;;3.27;1.70;;;;;;;2.38;100.00;94666.53;5021741;28;20079;-89
2022/01/05 02:10:26;;;;;;;3.53;1.63;;;;;;;2.33;100.00;94658.38;5025795;28;20083;-88
2022/01/05 02:12:54;;;;;;;3.23;1.90;;;;;;;2.32;100.00;94654.97;5045768;28;20042;-89
2022/01/05 02:15:21;;;;;;;3.10;1.93;;;;;;;2.36;100.00;94651.13;5032730;28;20037;-89
2022/01/05 02:17:56;;;;;;;5.57;1.80;;;;;;;2.35;100.00;94651.28;5059450;28;20048;-89
2022/01/05 02:20:27;;;;;;;3.67;1.83;;;;;;;2.40;100.00;94645.63;5045854;28;20034;-88
2022/01/05 02:22:59;;;;;;;3.93;1.70;;;;;;;2.40;100.00;94659.41;5043855;28;20028;-88
2022/01/05 02:25:34;;;;;;;2.63;1.33;;;;;;;2.45;100.00;94659.81;5045471;28;20352;-88
2022/01/05 02:28:00;;;;;;;3.17;1.60;;;;;;;2.46;100.00;94665.81;5035076;28;20045;-88
2022/01/05 02:30:29;;;;;;;3.40;1.80;;;;;;;2.40;100.00;94675.00;5022849;28;20049;-87
2022/01/05 02:32:57;;;;;;;2.33;1.20;;;;;;;2.40;100.00;94679.38;5020570;28;20491;-87
2022/01/05 02:35:24;;;;;;;2.13;1.17;;;;;;;2.37;100.00;94670.09;5037891;28;20045;-88
2022/01/05 02:37:53;;;;;;;2.47;1.00;;;;;;;2.35;100.00;94672.03;5007136;28;20048;-87
2022/01/05 02:40:22;;;;;;;1.27;0.87;;;;;;;2.38;100.00;94668.31;5010539;28;20383;-88
2022/01/05 02:42:49;;;;;;;3.73;1.10;;;;;;;2.30;100.00;94669.88;5025602;28;20107;-87
2022/01/05 02:45:15;;;;;;;1.70;0.60;;;;;;;2.30;100.00;94666.47;5036040;28;20020;-86
2022/01/05 02:47:41;;;;;;;2.03;0.93;;;;;;;2.30;100.00;94669.88;5056864;28;20032;-86
2022/01/05 02:50:10;;;;;;;1.40;0.80;;;;;;;2.28;100.00;94677.00;5029137;28;20037;-87
2022/01/05 02:52:36;;;;;;;1.50;0.70;;;;;;;2.23;100.00;94674.00;5034065;28;20036;-86
2022/01/05 02:55:17;;;;;;;2.83;0.87;;;;;;;2.21;100.00;94675.09;5040800;28;20159;-87
2022/01/05 02:57:43;;;;;;;2.27;0.80;;;;;;;2.17;100.00;94678.97;5014345;28;20033;-86
2022/01/05 03:00:12;;;;;;;1.10;0.57;;;;;;;2.11;100.00;94681.19;5037154;28;20037;-86
2022/01/05 03:02:38;;;;;;;0.93;0.47;;;;;;;2.17;100.00;94682.38;5018735;28;20040;-87
2022/01/05 03:05:04;;;;;;;1.27;0.70;;;;;;;2.14;100.00;94687.84;5037777;28;20068;-87
2022/01/05 03:07:31;;;;;;;1.23;0.70;;;;;;;2.15;100.00;94678.28;5043152;28;20045;-87
2022/01/05 03:10:00;;;;;;;2.07;1.00;;;;;;;2.12;100.00;94690.59;5043509;28;20025;-88
2022/01/05 03:12:26;;;;;;;1.43;0.60;;;;;;;2.13;100.00;94679.25;5026974;28;20103;-88
2022/01/05 03:14:51;;;;;;;1.33;0.60;;;;;;;2.12;100.00;94675.03;5021774;28;20063;-87
2022/01/05 03:17:28;;;;;;;1.33;0.50;;;;;;;2.16;100.00;94680.75;5017829;28;20159;-88
2022/01/05 03:19:54;;;;;;;2.10;0.80;;;;;;;2.19;100.00;94677.06;5012844;28;20029;-87
2022/01/05 03:22:19;;;;;;;0.97;0.40;;;;;;;2.16;100.00;94672.16;5046350;28;20061;-87
2022/01/05 03:24:45;;;;;;;1.00;0.37;;;;;;;2.28;100.00;94676.16;5015331;28;20455;-88
2022/01/05 03:27:11;;;;;;;0.63;0.40;;;;;;;2.37;100.00;94677.88;5020622;28;20039;-89
2022/01/05 03:29:37;;;;;;;0.50;0.40;;;;;;;2.46;100.00;94683.97;5015372;28;20030;-88
2022/01/05 03:32:03;;;;;;;1.83;0.50;;;;;;;2.51;100.00;94687.72;5029576;28;20060;-88
2022/01/05 03:34:31;;;;;;;1.83;0.70;;;;;;;2.55;100.00;94694.28;5002775;28;20034;-89
2022/01/05 03:36:59;;;;;;;0.87;0.30;;;;;;;2.69;100.00;94694.72;5045670;28;20033;-88
2022/01/05 03:39:26;;;;;;;2.47;0.50;;;;;;;2.70;100.00;94697.16;5033683;28;20049;-88
2022/01/05 03:41:52;;;;;;;1.57;0.40;;;;;;;2.74;100.00;94689.88;5016907;28;20042;-88
2022/01/05 03:44:18;;;;;;;0.67;0.30;;;;;;;2.75;100.00;94691.50;5046743;28;20068;-88
2022/01/05 03:46:43;;;;;;;1.40;0.50;;;;;;;2.75;100.00;94688.91;5044253;28;20029;-87
2022/01/05 03:49:09;;;;;;;0.93;0.40;;;;;;;2.77;100.00;94682.63;5042482;28;20029;-88
2022/01/05 03:51:38;;;;;;;3.10;0.40;;;;;;;2.75;100.00;94684.56;5035384;28;20295;-88
2022/01/05 03:54:04;;;;;;;1.47;0.40;;;;;;;2.77;100.00;94687.81;5020954;28;20049;-88
2022/01/05 03:56:30;;;;;;;0.80;0.30;;;;;;;2.79;100.00;94701.47;5027501;28;20067;-88
2022/01/05 03:58:55;;;;;;;0.93;0.30;;;;;;;2.78;100.00;94693.81;5025824;28;20037;-89
2022/01/05 04:01:24;;;;;;;0.83;0.27;;;;;;;2.75;100.00;94686.31;5025126;28;20037;-88
2022/01/05 04:04:12;;;;;;;1.07;0.73;;;;;;;2.72;100.00;94691.84;5024603;28;20040;-89
2022/01/05 04:06:38;;;;;;;3.67;0.63;;;;;;;2.70;100.00;94685.97;4999539;28;20045;-89
2022/01/05 04:09:03;;;;;;;2.13;0.57;;;;;;;2.66;100.00;94684.63;5022664;28;20094;-89
2022/01/05 04:11:29;;;;;;;1.00;0.40;;;;;;;2.70;100.00;94673.00;5045802;28;20100;-89
2022/01/05 04:13:55;;;;;;;1.03;0.27;;;;;;;2.69;100.00;94677.38;5014619;28;20136;-88
2022/01/05 04:16:21;;;;;;;0.20;0.20;;;;;;;2.65;100.00;94683.00;5040854;28;20059;-89
2022/01/05 04:18:46;;;;;;;0.57;0.20;;;;;;;2.67;100.00;94686.25;5041223;28;20597;-89
2022/01/05 04:21:12;;;;;;;1.10;0.37;;;;;;;2.68;100.00;94690.47;4998574;28;20030;-89
2022/01/05 04:23:38;;;;;;;0.77;0.33;;;;;;;2.69;100.00;94684.34;4999398;28;20078;-89
2022/01/05 04:26:03;;;;;;;2.93;0.60;;;;;;;2.71;100.00;94687.59;5022469;28;20651;-89
2022/01/05 04:28:29;;;;;;;0.50;0.20;;;;;;;2.73;100.00;94696.06;5024935;28;20150;-89
2022/01/05 04:30:55;;;;;;;2.20;0.40;;;;;;;2.75;100.00;94694.09;5020611;28;20025;-89
2022/01/05 04:33:20;;;;;;;2.03;0.40;;;;;;;2.76;100.00;94690.56;5034294;28;20033;-89
2022/01/05 04:35:49;;;;;;;2.53;0.30;;;;;;;2.84;100.00;94685.44;5022240;28;20032;-89
2022/01/05 04:38:18;;;;;;;0.43;0.30;;;;;;;2.86;100.00;94693.09;5030724;28;20045;-89
2022/01/05 04:40:44;;;;;;;0.50;0.20;;;;;;;2.87;100.00;94687.72;5042935;28;20025;-89
2022/01/05 04:43:10;;;;;;;2.47;1.30;;;;;;;2.87;100.00;94686.91;5046579;28;20113;-89
2022/01/05 04:45:35;;;;;;;3.70;1.43;;;;;;;2.86;100.00;94685.28;5041094;28;20052;-89
2022/01/05 04:48:01;;;;;;;1.43;0.30;;;;;;;2.84;100.00;94688.84;5031285;28;20491;-89
2022/01/05 04:50:27;;;;;;;0.70;0.30;;;;;;;2.86;100.00;94685.28;5017855;28;20033;-89
2022/01/05 04:52:53;;;;;;;0.93;0.20;;;;;;;2.88;100.00;94688.53;5014697;28;20454;-89
2022/01/05 04:55:18;;;;;;;0.30;0.20;;;;;;;2.92;100.00;94698.50;5015140;28;20025;-89
2022/01/05 04:57:44;;;;;;;0.57;0.30;;;;;;;2.87;100.00;94679.94;5012728;28;20029;-89
2022/01/05 05:00:10;;;;;;;0.20;0.10;;;;;;;2.90;100.00;94684.84;5050104;28;20396;-89
2022/01/05 05:02:39;;;;;;;0.93;0.30;;;;;;;2.90;100.00;94690.03;5016166;28;20132;-88
2022/01/05 05:05:05;;;;;;;1.67;0.30;;;;;;;2.93;100.00;94700.13;5012009;28;20029;-87
2022/01/05 05:07:30;;;;;;;2.33;0.30;;;;;;;2.94;100.00;94688.75;5022466;28;20496;-89
2022/01/05 05:09:56;;;;;;;0.40;0.30;;;;;;;3.02;100.00;94691.44;5035414;28;20499;-88
2022/01/05 05:12:22;;;;;;;0.87;0.40;;;;;;;3.02;100.00;94690.63;5030415;28;20037;-88
2022/01/05 05:14:48;;;;;;;1.60;0.27;;;;;;;3.01;100.00;94700.16;5040395;28;20037;-89
2022/01/05 05:17:13;;;;;;;1.27;0.20;;;;;;;3.00;100.00;94695.94;5032072;28;20041;-88
2022/01/05 05:19:39;;;;;;;1.57;0.60;;;;;;;2.99;100.00;94693.50;5022570;28;20508;-88
2022/01/05 05:22:05;;;;;;;0.93;0.30;;;;;;;3.01;100.00;94694.97;5023335;28;20029;-88
2022/01/05 05:24:30;;;;;;;1.43;0.20;;;;;;;2.98;100.00;94697.88;5023649;28;20039;-88
2022/01/05 05:26:56;;;;;;;0.83;0.10;;;;;;;2.98;100.00;94690.06;5020410;28;20032;-89
2022/01/05 05:29:26;;;;;;;0.50;0.27;;;;;;;3.00;100.00;94690.75;4998696;28;20040;-89
2022/01/05 05:31:51;;;;;;;1.27;0.60;;;;;;;3.00;100.00;94695.94;5015094;28;20644;-89
2022/01/05 05:34:17;;;;;;;1.03;0.40;;;;;;;3.00;100.00;94713.31;5034957;28;20030;-86
2022/01/05 05:36:43;;;;;;;0.50;0.20;;;;;;;2.99;100.00;94720.28;5013974;28;20040;-86
2022/01/05 05:39:10;;;;;;;0.50;0.20;;;;;;;2.97;100.00;94711.81;5004833;28;20033;-86
2022/01/05 05:41:37;;;;;;;0.47;0.20;;;;;;;3.01;100.00;94720.94;5025370;28;20506;-85
2022/01/05 05:44:03;;;;;;;0.50;0.20;;;;;;;2.92;100.00;94718.44;5025042;28;20033;-85
2022/01/05 05:46:28;;;;;;;0.47;0.30;;;;;;;2.86;100.00;94725.06;5038657;28;20052;-85
2022/01/05 05:48:54;;;;;;;0.97;0.40;;;;;;;2.81;100.00;94742.84;5037685;28;20040;-85
2022/01/05 05:51:20;;;;;;;0.80;0.30;;;;;;;2.76;100.00;94739.88;5012808;28;20091;-85
2022/01/05 05:53:46;;;;;;;0.53;0.33;;;;;;;2.71;100.00;94740.31;5049280;28;20075;-86
2022/01/05 05:56:11;;;;;;;1.63;0.30;;;;;;;2.64;100.00;94743.66;5038581;28;20029;-86
2022/01/05 05:58:52;;;;;;;1.77;0.40;;;;;;;2.67;100.00;94754.56;5041120;28;20087;-86
2022/01/05 06:01:18;;;;;;;0.30;0.27;;;;;;;2.63;100.00;94749.81;5016467;28;20037;-85
2022/01/05 06:03:51;;;;;;;2.97;0.80;;;;;;;2.66;100.00;94765.09;5043342;28;20037;-85
2022/01/05 06:06:17;;;;;;;2.03;0.82;;;;;;;2.64;100.00;94760.03;5032206;28;20116;-86
2022/01/05 06:08:43;;;;;;;4.23;2.07;;;;;;;2.63;100.00;94773.16;5041655;28;20124;-86
2022/01/05 06:11:11;;;;;;;1.10;0.43;;;;;;;2.62;100.00;94779.34;5034408;28;20056;-86
2022/01/05 06:13:36;;;;;;;1.80;0.40;;;;;;;2.56;100.00;94793.69;5032225;28;20036;-86
2022/01/05 06:16:04;;;;;;;0.60;0.30;;;;;;;2.48;100.00;94802.22;5039118;28;20033;-86
2022/01/05 06:19:02;;;;;;;0.20;0.20;;;;;;;2.44;100.00;94811.22;5044731;28;20069;-85
2022/01/05 06:21:28;;;;;;;0.97;0.50;;;;;;;2.32;100.00;94817.59;5050062;28;20049;-85
2022/01/05 06:23:54;;;;;;;0.67;0.40;;;;;;;2.34;100.00;94828.63;5042122;28;20031;-85
2022/01/05 06:26:42;;;;;;;0.30;0.30;;;;;;;2.19;100.00;94836.06;5042570;28;20045;-85
2022/01/05 06:33:02;;;;;;;0.73;0.57;;;;;;;2.09;100.00;94864.63;5044614;28;20032;-85
2022/01/05 06:35:27;;;;;;;0.90;0.60;;;;;;;2.02;100.00;94873.13;5018583;28;20021;-85
2022/01/05 06:38:12;;;;;;;0.63;0.50;;;;;;;1.87;100.00;94888.28;5030525;28;20509;-85
2022/01/05 06:40:38;;;;;;;0.90;0.67;;;;;;;1.84;100.00;94880.78;5033365;28;20029;-85
2022/01/05 06:43:03;;;;;;;1.10;0.90;;;;;;;1.74;100.00;94900.69;5039753;28;20166;-80
2022/01/05 06:45:29;;;;;;;1.57;0.90;;;;;;;1.53;100.00;94911.22;5031589;28;20048;-81
2022/01/05 06:47:55;;;;;;;1.27;1.10;;;;;;;1.48;100.00;94916.81;5039379;28;20030;-80
2022/01/05 06:50:21;;;;;;;2.07;1.33;;;;;;;1.47;100.00;94930.72;5015556;28;20369;-81
2022/01/05 06:52:47;;;;;;;3.90;2.30;;;;;;;1.42;100.00;94940.69;5027964;28;20033;-80
2022/01/05 06:55:13;;;;;;;2.93;1.70;;;;;;;1.22;100.00;94952.78;5014845;28;20083;-80
2022/01/05 06:57:41;;;;;;;3.27;1.90;;;;;;;1.17;100.00;94963.53;5043122;28;20471;-81
2022/01/05 07:00:11;;;;;;;3.90;2.70;;;;;;;1.07;100.00;94970.44;5012345;28;20599;-80
2022/01/05 07:02:37;;;;;;;3.37;2.20;;;;;;;1.04;100.00;94970.72;5031231;28;20810;-80
2022/01/05 07:05:04;;;;;;;2.80;2.10;;;;;;;1.01;100.00;94988.31;5019408;28;20022;-80
2022/01/05 07:07:40;;;;;;;4.60;2.83;;;;;;;1.01;100.00;94994.28;5013984;28;20498;-81
2022/01/05 07:10:07;;;;;;;3.97;2.53;;;;;;;0.96;100.00;94998.22;5023654;28;20464;-81
2022/01/05 07:12:34;;;;;;;3.77;2.60;;;;;;;0.86;100.00;95008.53;5033767;28;20474;-80
2022/01/05 07:14:59;;;;;;;2.50;1.90;;;;;;;0.91;100.00;95001.22;5040593;28;20454;-79
2022/01/05 07:17:25;;;;;;;2.97;1.90;;;;;;;0.84;100.00;95016.44;5029240;28;20456;-79
2022/01/05 07:19:51;;;;;;;3.47;2.30;;;;;;;0.78;100.00;95021.31;5031459;28;20021;-80
2022/01/05 07:22:17;;;;;;;4.83;2.30;;;;;;;0.74;100.00;95035.44;5028390;28;20117;-79
2022/01/05 07:24:43;;;;;;;5.50;2.27;;;;;;;0.69;100.00;95039.22;5013967;28;20116;-80
2022/01/05 07:27:08;;;;;;;3.73;2.50;;;;;;;0.65;100.00;95040.44;5020133;28;20044;-80
2022/01/05 07:29:34;;;;;;;3.13;1.90;;;;;;;0.58;100.00;95041.91;5038652;28;20084;-80
2022/01/05 07:32:00;;;;;;;5.83;1.93;;;;;;;0.55;100.00;95056.84;5039371;28;20159;-80
2022/01/05 07:34:25;;;;;;;2.57;1.60;;;;;;;0.54;100.00;95071.56;5013587;28;20036;-80
2022/01/05 07:36:51;;;;;;;3.70;1.97;;;;;;;0.49;100.00;95084.03;5030398;28;20043;-80
2022/01/05 07:39:17;;;;;;;3.67;1.93;;;;;;;0.58;100.00;95090.25;5038288;28;20112;-80
2022/01/05 07:41:44;;;;;;;4.37;1.80;;;;;;;0.46;100.00;95097.22;5040568;28;20033;-80
2022/01/05 07:44:09;;;;;;;8.07;1.90;;;;;;;0.39;100.00;95098.66;5040922;28;20087;-80
2022/01/05 07:46:35;;;;;;;3.37;1.70;;;;;;;0.35;100.00;95105.84;5037477;28;21021;-80
2022/01/05 07:49:03;;;;;;;3.70;2.13;;;;;;;0.35;100.00;95117.97;5009872;28;20033;-80
2022/01/05 07:51:29;;;;;;;5.93;1.97;;;;;;;0.37;100.00;95110.91;4994588;28;20460;-80
2022/01/05 07:53:55;;;;;;;3.77;1.27;;;;;;;0.17;100.00;95115.94;5035211;28;20459;-80
2022/01/05 07:56:21;;;;;;;2.53;1.00;;;;;;;0.22;100.00;95118.13;5007518;28;20467;-80
2022/01/05 07:58:49;;;;;;;6.50;1.67;;;;;;;0.26;100.00;95113.53;5038594;28;20052;-80
2022/01/05 08:01:18;;;;;;;6.20;1.70;;;;;;;0.11;100.00;95124.19;5021667;28;20123;-80
2022/01/05 08:03:50;;;;;;;2.33;1.40;;;;;;;0.12;100.00;95132.75;5036985;28;20534;-80
2022/01/05 08:06:17;;;;;;;6.97;1.50;;;;;;;0.15;100.00;95127.34;5039726;28;20452;-79
2022/01/05 08:08:44;;;;;;;5.93;1.93;;;;;;;0.10;100.00;95127.72;5038110;28;20495;-79
2022/01/05 08:11:11;;;;;;;11.30;4.60;;;;;;;0.21;100.00;95127.66;5018424;28;20578;-80
2022/01/05 08:13:36;;;;;;;7.03;2.73;;;;;;;0.21;100.00;95138.00;5004149;28;20471;-80
2022/01/05 08:16:02;;;;;;;9.83;1.93;;;;;;;0.01;100.00;95138.78;5039994;28;20463;-79
2022/01/05 08:18:28;;;;;;;4.97;1.87;;;;;;;0.16;100.00;95144.47;5033049;28;20558;-79
2022/01/05 08:20:55;;;;;;;10.37;3.97;;;;;;;0.14;100.00;95152.38;5012144;28;20037;-80
2022/01/05 08:23:24;;;;;;;14.33;7.23;;;;;;;0.19;100.00;95146.81;4995577;28;20025;-80
2022/01/05 08:25:52;;;;;;;8.07;2.53;;;;;;;0.11;100.00;95152.63;5036337;28;20484;-80
2022/01/05 08:28:18;;;;;;;7.57;2.30;;;;;;;0.05;100.00;95147.94;5018572;28;20448;-80
2022/01/05 08:30:45;;;;;;;5.77;2.20;;;;;;;0.08;100.00;95157.22;5020755;28;21100;-80
2022/01/05 08:33:13;;;;;;;5.23;2.90;;;;;;;-0.01;100.00;95158.75;5028811;28;20453;-80
2022/01/05 08:35:39;;;;;;;5.00;2.60;;;;;;;0.01;100.00;95167.22;5040096;28;21346;-80
2022/01/05 08:38:05;;;;;;;5.80;2.40;;;;;;;-0.04;100.00;95169.31;5023350;28;20980;-80
2022/01/05 08:40:34;;;;;;;8.80;2.27;;;;;;;0.08;100.00;95172.72;5034737;28;20451;-80
2022/01/05 08:43:00;;;;;;;5.77;2.37;;;;;;;-0.02;100.00;95178.59;5029473;28;20463;-80
2022/01/05 08:45:26;;;;;;;4.30;2.03;;;;;;;0.03;100.00;95183.41;5011892;28;20479;-80
2022/01/05 08:47:56;;;;;;;4.00;1.97;;;;;;;-0.02;100.00;95190.72;5036915;28;20037;-81
2022/01/05 08:50:24;;;;;;;5.60;2.27;;;;;;;0.09;100.00;95193.25;5032520;28;20509;-80
2022/01/05 08:52:51;;;;;;;5.60;2.33;;;;;;;-0.08;100.00;95198.94;4994859;28;21001;-80
2022/01/05 08:55:22;;;;;;;4.77;2.23;;;;;;;-0.10;100.00;95201.66;5010366;28;20514;-80
2022/01/05 08:57:49;;;;;;;5.20;1.80;;;;;;;-0.24;100.00;95194.94;5005593;28;20478;-79
2022/01/05 09:00:16;;;;;;;5.80;2.30;;;;;;;-0.32;100.00;95196.50;5023520;28;20455;-80
2022/01/05 09:02:43;;;;;;;3.80;1.90;;;;;;;-0.27;100.00;95209.88;5016810;28;20453;-80
2022/01/05 09:05:09;;;;;;;4.23;1.90;;;;;;;-0.21;100.00;95216.34;5033134;28;20487;-79
2022/01/05 09:07:35;;;;;;;6.43;2.03;;;;;;;-0.34;100.00;95224.19;5025183;28;20444;-80
2022/01/05 09:10:04;;;;;;;4.43;2.10;;;;;;;-0.28;100.00;95219.38;4996237;28;20467;-80
2022/01/05 09:12:31;;;;;;;6.73;2.87;;;;;;;-0.28;100.00;95226.31;5035783;28;20029;-80
2022/01/05 09:14:57;;;;;;;4.97;1.97;;;;;;;-0.18;100.00;95229.03;5027774;28;20471;-80
2022/01/05 09:17:24;;;;;;;4.80;2.33;;;;;;;-0.22;100.00;95232.78;5013830;28;20977;-80
2022/01/05 09:19:52;;;;;;;6.63;2.13;;;;;;;-0.18;100.00;95247.09;5030815;28;20034;-80
2022/01/05 09:22:20;;;;;;;7.70;2.03;;;;;;;-0.13;100.00;95242.41;5006679;28;20448;-80
2022/01/05 09:24:45;;;;;;;4.40;1.80;;;;;;;-0.03;100.00;95251.91;5010900;28;20873;-80
2022/01/05 09:27:13;;;;;;;4.03;1.80;;;;;;;-0.09;100.00;95244.63;5035869;28;20631;-80
2022/01/05 09:29:42;;;;;;;10.00;3.77;;;;;;;-0.15;100.00;95263.19;5036299;28;20029;-79
2022/01/05 09:32:09;;;;;;;3.97;1.50;;;;;;;-0.02;100.00;95257.91;5020131;28;20476;-79
2022/01/05 09:34:40;;;;;;;5.50;1.60;;;;;;;0.12;100.00;95265.41;5010398;28;20870;-79
2022/01/05 09:37:23;;;;;;;4.60;1.23;;;;;;;0.69;100.00;95266.94;5015542;28;20471;-79
2022/01/05 09:42:39;;;;;;;6.40;1.30;;;;;;;1.39;100.00;95288.88;5027532;28;20471;-80
2022/01/05 09:45:19;;;;;;;5.00;1.60;;;;;;;1.66;100.00;95284.94;5037602;28;20463;-80
2022/01/05 09:48:26;;;;;;;5.37;1.60;;;;;;;1.77;100.00;95289.22;5016705;28;20464;-80
2022/01/05 09:51:05;;;;;;;6.27;1.27;;;;;;;1.58;100.00;95295.94;5025584;28;20471;-80
2022/01/05 09:53:33;;;;;;;3.03;1.10;;;;;;;1.92;100.00;95298.31;5035485;28;20478;-80
2022/01/05 09:55:59;;;;;;;4.17;1.30;;;;;;;1.45;100.00;95294.50;5045268;28;20466;-80
2022/01/05 09:58:24;;;;;;;3.63;0.90;;;;;;;1.46;100.00;95312.50;5038656;28;20502;-80
2022/01/05 10:00:51;;;;;;;6.70;1.40;;;;;;;1.03;100.00;95323.75;5027142;28;20041;-79
2022/01/05 10:03:25;;;;;;;6.93;1.27;;;;;;;0.74;100.00;95330.41;5000521;28;20403;-79
2022/01/05 10:05:50;;;;;;;8.25;1.15;;;;;;;0.36;100.00;95335.06;5036636;28;20480;-79
2022/01/05 10:08:17;;;;;;;4.40;1.30;;;;;;;0.31;100.00;95337.22;5046095;28;20174;-79
2022/01/05 10:10:42;;;;;;;5.27;1.80;;;;;;;0.51;100.00;95358.94;5019998;28;20120;-79
2022/01/05 10:13:09;;;;;;;8.97;1.30;;;;;;;1.34;100.00;95349.75;5020912;28;20554;-79
2022/01/05 10:15:35;;;;;;;5.27;1.40;;;;;;;1.42;100.00;95350.78;5002383;28;20087;-78
2022/01/05 10:18:13;;;;;;;5.90;1.33;;;;;;;0.98;100.00;95353.56;5031917;28;20481;-79
2022/01/05 10:20:59;;;;;;;5.00;1.10;;;;;;;0.67;100.00;95353.38;5041283;28;20482;-78
2022/01/05 10:23:52;;;;;;;10.57;2.30;;;;;;;0.58;100.00;95354.94;5040676;28;20456;-79
2022/01/05 10:26:24;;;;;;;10.63;2.50;;;;;;;0.34;100.00;95364.59;4989567;28;20456;-79
2022/01/05 10:28:52;;;;;;;7.77;2.57;;;;;;;0.41;100.00;95370.94;5029812;28;20460;-79
2022/01/05 10:31:39;;;;;;;10.03;2.03;;;;;;;0.12;100.00;95355.88;5042096;28;20501;-79
2022/01/05 10:34:25;;;;;;;5.40;2.23;;;;;;;0.03;100.00;95354.00;5040628;28;20454;-79
2022/01/05 10:36:53;;;;;;;5.27;1.80;;;;;;;0.39;100.00;95359.88;5021948;28;21020;-79
2022/01/05 10:39:28;;;;;;;6.73;1.60;;;;;;;0.16;100.00;95366.81;5033165;28;21339;-79
2022/01/05 10:41:55;;;;;;;9.03;2.07;;;;;;;0.26;100.00;95366.94;5027249;28;20487;-79
2022/01/05 10:44:23;;;;;;;6.87;1.93;;;;;;;0.07;100.00;95367.50;5035486;28;20883;-79
2022/01/05 10:46:56;;;;;;;5.70;1.57;;;;;;;0.01;100.00;95368.81;5031727;28;20444;-79
2022/01/05 10:49:25;;;;;;;7.40;1.73;;;;;;;0.19;100.00;95364.00;5012401;28;21385;-79
2022/01/05 10:51:51;;;;;;;8.53;1.90;;;;;;;0.13;100.00;95370.44;5043354;28;20035;-79
2022/01/05 10:54:20;;;;;;;5.90;1.53;;;;;;;0.39;100.00;95368.47;5012800;28;20441;-79
2022/01/05 10:56:47;;;;;;;7.90;2.67;;;;;;;0.56;100.00;95372.31;5036588;28;20552;-79
2022/01/05 10:59:16;;;;;;;10.80;3.83;;;;;;;0.76;100.00;95373.34;5012619;28;21070;-79
2022/01/05 11:01:42;;;;;;;10.93;3.50;;;;;;;0.78;100.00;95363.72;5028514;28;20965;-79
2022/01/05 11:04:20;;;;;;;9.17;2.43;;;;;;;1.53;100.00;95364.63;5022216;28;20557;-79
2022/01/05 11:07:03;;;;;;;6.93;2.67;;;;;;;1.92;100.00;95365.72;5019073;28;20513;-79
2022/01/05 11:09:32;;;;;;;8.93;1.33;;;;;;;2.40;97.03;95369.50;5039440;28;20558;-79
2022/01/05 11:11:58;;;;;;;7.97;1.93;;;;;;;2.14;91.51;95367.31;5038367;28;20551;-78
2022/01/05 11:14:34;;;;;;;7.53;1.23;;;;;;;1.83;87.82;95361.28;5039603;28;20455;-79
2022/01/05 11:17:05;;;;;;;4.10;1.10;;;;;;;1.72;87.18;95359.59;5035696;28;20037;-79
2022/01/05 11:19:35;;;;;;;9.00;1.80;;;;;;;2.47;89.42;95368.84;5008721;28;20083;-80
2022/01/05 11:22:09;;;;;;;7.87;1.50;;;;;;;2.20;87.21;95373.78;5025478;28;20032;-80
2022/01/05 11:24:35;;;;;;;6.53;1.60;;;;;;;1.85;90.00;95367.19;5025511;28;20025;-80
2022/01/05 11:27:03;;;;;;;6.00;1.40;;;;;;;1.77;92.73;95385.13;5036061;28;20030;-79
2022/01/05 11:29:30;;;;;;;6.13;1.37;;;;;;;1.22;93.09;95385.25;5041358;28;20030;-79
2022/01/05 11:31:57;;;;;;;6.27;2.10;;;;;;;0.76;97.70;95382.91;5036625;28;20036;-79
2022/01/05 11:34:27;;;;;;;9.37;1.80;;;;;;;0.84;99.51;95396.03;5028592;28;20783;-79
2022/01/05 11:37:02;;;;;;;7.90;1.60;;;;;;;0.89;100.00;95399.09;5002171;28;20034;-80
2022/01/05 11:39:31;;;;;;;7.97;1.73;;;;;;;0.95;100.00;95401.22;5021305;28;20480;-79
2022/01/05 11:41:59;;;;;;;10.13;1.93;;;;;;;0.68;100.00;95407.59;5035076;28;21096;-79
2022/01/05 11:44:29;;;;;;;8.03;2.13;;;;;;;0.61;100.00;95409.03;5021078;28;20515;-79
2022/01/05 11:46:56;;;;;;;7.70;1.67;;;;;;;0.32;100.00;95405.25;5037913;28;20472;-79